地図

経路データ

SID SEASON NUMBER BASIN SUBBASIN NAME ISO_TIME NATURE LAT LON WMO_WIND WMO_PRES WMO_AGENCY TRACK_TYPE DIST2LAND LANDFALL IFLAG USA_AGENCY USA_ATCF_ID USA_LAT USA_LON USA_RECORD USA_STATUS USA_WIND USA_PRES USA_SSHS USA_R34_NE USA_R34_SE USA_R34_SW USA_R34_NW USA_R50_NE USA_R50_SE USA_R50_SW USA_R50_NW USA_R64_NE USA_R64_SE USA_R64_SW USA_R64_NW USA_POCI USA_ROCI USA_RMW USA_EYE TOKYO_LAT TOKYO_LON TOKYO_GRADE TOKYO_WIND TOKYO_PRES TOKYO_R50_DIR TOKYO_R50_LONG TOKYO_R50_SHORT TOKYO_R30_DIR TOKYO_R30_LONG TOKYO_R30_SHORT TOKYO_LAND CMA_LAT CMA_LON CMA_CAT CMA_WIND CMA_PRES HKO_LAT HKO_LON HKO_CAT HKO_WIND HKO_PRES NEWDELHI_LAT NEWDELHI_LON NEWDELHI_GRADE NEWDELHI_WIND NEWDELHI_PRES NEWDELHI_CI NEWDELHI_DP NEWDELHI_POCI REUNION_LAT REUNION_LON REUNION_TYPE REUNION_WIND REUNION_PRES REUNION_TNUM REUNION_CI REUNION_RMW REUNION_R34_NE REUNION_R34_SE REUNION_R34_SW REUNION_R34_NW REUNION_R50_NE REUNION_R50_SE REUNION_R50_SW REUNION_R50_NW REUNION_R64_NE REUNION_R64_SE REUNION_R64_SW REUNION_R64_NW BOM_LAT BOM_LON BOM_TYPE BOM_WIND BOM_PRES BOM_TNUM BOM_CI BOM_RMW BOM_R34_NE BOM_R34_SE BOM_R34_SW BOM_R34_NW BOM_R50_NE BOM_R50_SE BOM_R50_SW BOM_R50_NW BOM_R64_NE BOM_R64_SE BOM_R64_SW BOM_R64_NW BOM_ROCI BOM_POCI BOM_EYE BOM_POS_METHOD BOM_PRES_METHOD NADI_LAT NADI_LON NADI_CAT NADI_WIND NADI_PRES WELLINGTON_LAT WELLINGTON_LON WELLINGTON_WIND WELLINGTON_PRES DS824_LAT DS824_LON DS824_STAGE DS824_WIND DS824_PRES TD9636_LAT TD9636_LON TD9636_STAGE TD9636_WIND TD9636_PRES TD9635_LAT TD9635_LON TD9635_WIND TD9635_PRES TD9635_ROCI NEUMANN_LAT NEUMANN_LON NEUMANN_CLASS NEUMANN_WIND NEUMANN_PRES MLC_LAT MLC_LON MLC_CLASS MLC_WIND MLC_PRES USA_GUST BOM_GUST BOM_GUST_PER REUNION_GUST REUNION_GUST_PER USA_SEAHGT USA_SEARAD_NE USA_SEARAD_SE USA_SEARAD_SW USA_SEARAD_NW STORM_SPEED STORM_DIR
1904071S14059 1904 4 SI MM NOT_NAMED 1904-03-11 00:00:00 TS -13.8000 59.1000 main 720 692 _________O____ -1 -13.8000 59.1000 TC 6 233
1904071S14059 1904 4 SI MM NOT_NAMED 1904-03-11 03:00:00 TS -13.9926 58.8351 main 692 667 _________P____ -1 -13.9926 58.8351 TC 6 230
1904071S14059 1904 4 SI MM NOT_NAMED 1904-03-11 06:00:00 TS -14.2000 58.6000 main 667 642 _________O____ -1 -14.2000 58.6000 TC 6 223
1904071S14059 1904 4 SI MM NOT_NAMED 1904-03-11 09:00:00 TS -14.4349 58.4074 main 642 606 _________P____ -1 -14.4349 58.4074 TC 6 218
1904071S14059 1904 4 SI MM NOT_NAMED 1904-03-11 12:00:00 TS -14.7000 58.2000 main 606 571 _________O____ -1 -14.7000 58.2000 TC 7 221
1904071S14059 1904 4 SI MM NOT_NAMED 1904-03-11 15:00:00 TS -14.9925 57.9150 main 571 537 _________P____ -1 -14.9925 57.9150 TC 8 224
1904071S14059 1904 4 SI MM NOT_NAMED 1904-03-11 18:00:00 TS -15.3000 57.6000 main 537 503 _________O____ -1 -15.3000 57.6000 TC 9 225
1904071S14059 1904 4 SI MM NOT_NAMED 1904-03-11 21:00:00 TS -15.5925 57.2850 main 503 472 _________P____ -1 -15.5925 57.2850 TC 8 224
1904071S14059 1904 4 SI MM NOT_NAMED 1904-03-12 00:00:00 TS -15.9000 57.0000 main 472 442 _________O____ -1 -15.9000 57.0000 TC 8 218
1904071S14059 1904 4 SI MM NOT_NAMED 1904-03-12 03:00:00 TS -16.2275 56.7774 main 442 402 _________P____ -1 -16.2275 56.7774 TC 8 209
1904071S14059 1904 4 SI MM NOT_NAMED 1904-03-12 06:00:00 TS -16.6000 56.6000 main 402 362 _________O____ -1 -16.6000 56.6000 TC 9 201
1904071S14059 1904 4 SI MM NOT_NAMED 1904-03-12 09:00:00 TS -17.0350 56.4499 main 365 317 _________P____ -1 -17.0350 56.4499 TC 10 198
1904071S14059 1904 4 SI MM NOT_NAMED 1904-03-12 12:00:00 TS -17.5000 56.3000 main 317 286 _________O____ -1 -17.5000 56.3000 TC 10 201
1904071S14059 1904 4 SI MM NOT_NAMED 1904-03-12 15:00:00 TS -17.9425 56.0926 main 286 253 _________P____ -1 -17.9425 56.0926 TC 10 203
1904071S14059 1904 4 SI MM NOT_NAMED 1904-03-12 18:00:00 TS -18.4000 55.9000 main 253 223 _________O____ -1 -18.4000 55.9000 TC 10 197
1904071S14059 1904 4 SI MM NOT_NAMED 1904-03-12 21:00:00 TS -18.9000 55.7774 main 223 178 _________P____ -1 -18.9000 55.7774 TC 10 191
1904071S14059 1904 4 SI MM NOT_NAMED 1904-03-13 00:00:00 TS -19.4000 55.7000 main 178 134 _________O____ -1 -19.4000 55.7000 TC 10 188
1904071S14059 1904 4 SI MM NOT_NAMED 1904-03-13 03:00:00 TS -19.8575 55.6350 main 123 78 _________P____ -1 -19.8575 55.6350 TC 9 186
1904071S14059 1904 4 SI MM NOT_NAMED 1904-03-13 06:00:00 TS -20.3000 55.6000 main 78 33 _________O____ -1 -20.3000 55.6000 TC 9 183
1904071S14059 1904 4 SI MM NOT_NAMED 1904-03-13 09:00:00 TS -20.7500 55.5924 main 33 0 _________P____ -1 -20.7500 55.5924 TC 9 0
1904071S14059 1904 4 SI MM NOT_NAMED 1904-03-13 12:00:00 TS -21.2000 55.6000 main 0 0 _________O____ -1 -21.2000 55.6000 TC 9 0
1904071S14059 1904 4 SI MM NOT_NAMED 1904-03-13 15:00:00 TS -21.6500 55.6000 main 22 22 _________P____ -1 -21.6500 55.6000 TC 9 0
1904071S14059 1904 4 SI MM NOT_NAMED 1904-03-13 18:00:00 TS -22.1000 55.6000 main 78 78 _________O____ -1 -22.1000 55.6000 TC 9 181
1904071S14059 1904 4 SI MM NOT_NAMED 1904-03-13 21:00:00 TS -22.5425 55.5926 main 122 122 _________P____ -1 -22.5425 55.5926 TC 9 0
1904071S14059 1904 4 SI MM NOT_NAMED 1904-03-14 00:00:00 TS -23.0000 55.6000 main 178 178 _________O____ -1 -23.0000 55.6000 TC 10 177
1904071S14059 1904 4 SI MM NOT_NAMED 1904-03-14 03:00:00 TS -23.4925 55.6425 main 234 234 _________P____ -1 -23.4925 55.6425 TC 10 175
1904071S14059 1904 4 SI MM NOT_NAMED 1904-03-14 06:00:00 TS -24.0000 55.7000 main 290 290 _________O____ -1 -24.0000 55.7000 TC 10 175
1904071S14059 1904 4 SI MM NOT_NAMED 1904-03-14 09:00:00 TS -24.5075 55.7426 main 346 346 _________P____ -1 -24.5075 55.7426 TC 10 175
1904071S14059 1904 4 SI MM NOT_NAMED 1904-03-14 12:00:00 TS -25.0000 55.8000 main 402 402 _________O____ -1 -25.0000 55.8000 TC 10 172
1904071S14059 1904 4 SI MM NOT_NAMED 1904-03-14 15:00:00 TS -25.4575 55.8851 main 459 459 _________P____ -1 -25.4575 55.8851 TC 9 169
1904071S14059 1904 4 SI MM NOT_NAMED 1904-03-14 18:00:00 TS -25.9000 56.0000 main 504 504 _________O____ -1 -25.9000 56.0000 TC 9 165
1904071S14059 1904 4 SI MM NOT_NAMED 1904-03-14 21:00:00 TS -26.3475 56.1422 main 549 549 _________P____ -1 -26.3475 56.1422 TC 9 163
1904071S14059 1904 4 SI MM NOT_NAMED 1904-03-15 00:00:00 TS -26.8000 56.3000 main 607 _________O____ -1 -26.8000 56.3000 TC 10 162

IBTrACS Databaseについて

本データベースは、米国NOAAが公開する1842年以降の世界の熱帯低気圧のベストトラックデータアーカイブInternational Best Track Archive for Climate Stewardship (IBTrACS)を、ウェブで閲覧しやすい形式に変換したものです。

最終更新日:2021-11-26